createdAt,value
2019-05-13T00:00:41.453Z,77.19
2019-05-13T00:03:13.717Z,76.85
2019-05-13T00:05:45.912Z,76.72
2019-05-13T00:08:17.660Z,76.86
2019-05-13T00:10:49.483Z,78.63
2019-05-13T00:13:23.569Z,77.12
2019-05-13T00:15:56.576Z,77.56
2019-05-13T00:18:28.420Z,77.37
2019-05-13T00:21:00.146Z,77.05
2019-05-13T00:23:34.018Z,77.42
2019-05-13T00:26:06.107Z,76.77
2019-05-13T00:28:37.953Z,76.99
2019-05-13T00:31:09.674Z,76.74
2019-05-13T00:33:41.428Z,77.45
2019-05-13T00:36:14.269Z,78.10
2019-05-13T00:38:46.181Z,77.78
2019-05-13T00:41:17.906Z,77.65
2019-05-13T00:43:49.648Z,77.26
2019-05-13T00:46:23.599Z,77.63
2019-05-13T00:48:56.008Z,77.56
2019-05-13T00:51:29.360Z,77.88
2019-05-13T00:54:01.004Z,76.66
2019-05-13T00:56:34.478Z,77.28
2019-05-13T00:59:06.065Z,76.71
2019-05-13T01:01:37.783Z,76.56
2019-05-13T01:04:09.632Z,76.21
2019-05-13T01:06:43.535Z,76.74
2019-05-13T01:09:15.580Z,76.91
2019-05-13T01:11:47.907Z,76.64
2019-05-13T01:14:19.744Z,76.33
2019-05-13T01:16:54.365Z,76.46
2019-05-13T01:19:25.996Z,76.47
2019-05-13T01:21:57.709Z,76.40
2019-05-13T01:24:29.446Z,76.39
2019-05-13T01:27:03.995Z,76.04
2019-05-13T01:29:34.879Z,76.72
2019-05-13T01:32:06.597Z,76.96
2019-05-13T01:34:38.343Z,76.94
2019-05-13T01:37:10.157Z,76.61
2019-05-13T01:39:43.712Z,77.17
2019-05-13T01:42:15.427Z,77.38
2019-05-13T01:44:47.261Z,77.35
2019-05-13T01:47:18.984Z,77.36
2019-05-13T01:49:50.728Z,77.22
2019-05-13T01:52:23.748Z,77.93
2019-05-13T01:54:56.740Z,77.77
2019-05-13T01:57:28.468Z,77.98
2019-05-13T02:00:00.313Z,78.07
2019-05-13T02:02:33.644Z,78.21
2019-05-13T02:05:07.101Z,78.26
2019-05-13T02:07:38.627Z,78.30
2019-05-13T02:10:14.436Z,78.59
2019-05-13T02:12:46.458Z,78.22
2019-05-13T02:15:18.482Z,78.40
2019-05-13T02:17:50.506Z,78.71
2019-05-13T02:20:24.660Z,79.57
2019-05-13T02:22:55.895Z,79.26
2019-05-13T02:25:27.640Z,79.53
2019-05-13T02:27:59.467Z,78.96
2019-05-13T02:30:34.670Z,78.90
2019-05-13T02:33:04.429Z,79.38
2019-05-13T02:35:36.279Z,78.95
2019-05-13T02:38:19.724Z,78.70
2019-05-13T02:40:43.325Z,78.26
2019-05-13T02:43:16.224Z,78.82
2019-05-13T02:45:47.879Z,78.63
2019-05-13T02:48:22.895Z,78.92
2019-05-13T02:50:53.958Z,79.08
2019-05-13T02:53:26.240Z,79.45
2019-05-13T02:55:57.995Z,79.01
2019-05-13T02:58:32.946Z,79.46
2019-05-13T03:01:03.637Z,79.41
2019-05-13T03:03:35.442Z,79.55
2019-05-13T03:06:07.256Z,79.61
2019-05-13T03:08:46.374Z,79.26
2019-05-13T03:11:12.726Z,78.93
2019-05-13T03:13:44.636Z,79.26
2019-05-13T03:16:18.027Z,79.43
2019-05-13T03:18:52.421Z,79.61
2019-05-13T03:21:23.860Z,79.25
2019-05-13T03:23:55.586Z,79.05
2019-05-13T03:26:27.429Z,79.40
2019-05-13T03:29:02.520Z,78.97
2019-05-13T03:31:35.879Z,78.90
2019-05-13T03:34:07.592Z,78.86
2019-05-13T03:36:45.823Z,79.04
2019-05-13T03:39:16.318Z,79.11
2019-05-13T03:41:53.009Z,78.24
2019-05-13T03:44:26.007Z,78.21
2019-05-13T03:47:03.435Z,77.90
2019-05-13T03:49:36.588Z,77.50
2019-05-13T03:52:08.328Z,77.09
2019-05-13T03:54:43.549Z,77.20
2019-05-13T03:57:15.837Z,76.66
2019-05-13T03:59:48.843Z,76.17
2019-05-13T04:02:22.598Z,75.52
2019-05-13T04:04:58.587Z,73.34
2019-05-13T04:07:27.795Z,72.67
2019-05-13T04:10:03.016Z,68.20
2019-05-13T04:12:33.470Z,64.99
2019-05-13T04:15:07.737Z,60.48
2019-05-13T04:17:42.532Z,58.70
2019-05-13T04:20:14.620Z,54.42
2019-05-13T04:22:46.439Z,51.90
2019-05-13T04:25:18.367Z,49.96
2019-05-13T04:27:52.375Z,50.20
2019-05-13T04:30:25.600Z,47.26
2019-05-13T04:33:02.375Z,46.62
2019-05-13T04:35:44.355Z,46.83
2019-05-13T04:38:15.073Z,46.76
2019-05-13T04:40:48.048Z,44.65
2019-05-13T04:43:23.235Z,42.79
2019-05-13T04:45:53.948Z,43.38
2019-05-13T11:51:23.827Z,34.22
2019-05-13T11:53:54.315Z,34.57
2019-05-13T11:56:26.647Z,35.28
2019-05-13T11:58:58.407Z,36.72
2019-05-13T12:01:33.475Z,35.56
2019-05-13T12:04:04.306Z,34.46
2019-05-13T12:06:43.794Z,33.97
2019-05-13T12:09:13.195Z,32.50
2019-05-13T12:11:43.645Z,31.65
2019-05-13T12:14:41.000Z,32.31
2019-05-13T12:16:48.735Z,32.03
2019-05-13T12:19:21.932Z,33.49
2019-05-13T12:21:54.344Z,32.83
2019-05-13T12:24:26.432Z,33.75
2019-05-13T12:26:58.243Z,32.10
2019-05-13T12:29:29.940Z,32.46
2019-05-13T12:32:03.283Z,31.63
2019-05-13T12:34:40.585Z,32.83
2019-05-13T12:37:08.968Z,30.33
2019-05-13T12:39:43.942Z,31.32
2019-05-13T12:42:22.454Z,29.98
2019-05-13T12:45:03.937Z,29.91
2019-05-13T12:47:25.583Z,29.95
2019-05-13T12:49:57.441Z,28.89
2019-05-13T12:52:32.573Z,28.95
2019-05-13T12:55:05.260Z,30.09
2019-05-13T12:57:39.128Z,29.83
2019-05-13T13:00:13.240Z,29.25
2019-05-13T13:02:50.418Z,30.37
2019-05-13T13:05:21.277Z,31.11
2019-05-13T13:08:15.955Z,32.57
2019-05-13T13:10:26.095Z,32.82
2019-05-13T13:12:57.857Z,32.81
2019-05-13T13:15:40.756Z,34.44
2019-05-13T13:18:04.800Z,33.27
2019-05-13T13:20:42.269Z,33.80
2019-05-13T13:23:13.915Z,34.04
2019-05-13T13:25:52.930Z,34.35
2019-05-13T13:28:23.785Z,33.90
2019-05-13T13:30:54.660Z,35.09
2019-05-13T13:33:26.357Z,36.51
2019-05-13T13:36:01.200Z,33.69
2019-05-13T13:38:32.995Z,35.12
2019-05-13T13:41:05.176Z,34.65
2019-05-13T13:43:38.177Z,35.17
2019-05-13T13:46:25.061Z,36.01
2019-05-13T13:48:45.278Z,36.98
2019-05-13T13:51:18.473Z,38.09
2019-05-13T13:53:56.464Z,38.36
2019-05-13T13:56:25.196Z,39.54
2019-05-13T13:58:57.961Z,39.54
2019-05-13T14:01:33.833Z,39.65
2019-05-13T14:04:05.957Z,41.07
2019-05-13T14:09:12.036Z,38.74
2019-05-13T14:11:45.350Z,38.32
2019-05-13T14:14:21.549Z,38.19
2019-05-13T14:16:52.979Z,38.26
2019-05-13T14:19:27.227Z,36.71
2019-05-13T14:22:01.686Z,36.00
2019-05-13T14:24:33.514Z,37.36
2019-05-13T14:27:08.456Z,35.97
2019-05-13T14:29:48.907Z,35.25
2019-05-13T14:32:15.813Z,35.54
2019-05-13T14:34:47.776Z,34.31
2019-05-13T14:37:22.374Z,34.29
2019-05-13T14:39:55.591Z,36.21
2019-05-13T14:42:27.421Z,35.19
2019-05-13T14:45:01.746Z,36.62
2019-05-13T14:47:33.115Z,36.77
2019-05-13T14:50:12.183Z,37.95
2019-05-13T14:52:45.272Z,36.33
2019-05-13T14:55:22.590Z,37.29
2019-05-13T14:57:55.699Z,37.15
2019-05-13T15:00:28.365Z,37.34
2019-05-13T15:03:02.958Z,38.14
2019-05-13T15:05:35.314Z,37.80
2019-05-13T15:08:07.085Z,37.15
2019-05-13T15:10:38.974Z,35.42
2019-05-13T15:13:10.641Z,35.70
2019-05-13T15:15:43.651Z,36.42
2019-05-13T15:18:16.989Z,37.97
2019-05-13T15:20:49.554Z,37.28
2019-05-13T15:23:23.646Z,39.07
2019-05-13T15:25:55.234Z,39.16
2019-05-13T15:28:27.249Z,38.72
2019-05-13T15:31:00.229Z,36.97
2019-05-13T15:33:32.935Z,38.01
2019-05-13T15:36:04.969Z,39.40
2019-05-13T15:38:36.810Z,39.60
2019-05-13T15:41:14.681Z,40.90
2019-05-13T15:43:43.173Z,40.60
2019-05-13T15:46:15.296Z,41.33
2019-05-13T15:48:47.714Z,41.73
2019-05-13T15:51:22.113Z,42.61
2019-05-13T15:53:57.111Z,41.88
2019-05-13T15:56:31.273Z,43.97
2019-05-13T15:59:02.309Z,43.70
2019-05-13T16:01:34.523Z,41.88
2019-05-13T16:04:06.062Z,42.14
2019-05-13T16:06:37.881Z,43.76
2019-05-13T16:09:11.733Z,41.14
2019-05-13T16:11:43.177Z,41.97
2019-05-13T16:14:15.108Z,42.57
2019-05-13T16:16:47.073Z,40.18
2019-05-13T16:19:21.966Z,39.57
2019-05-13T16:21:56.379Z,39.17
2019-05-13T16:24:31.929Z,39.29
2019-05-13T16:27:06.967Z,39.22
2019-05-13T16:29:42.130Z,39.53
2019-05-13T16:32:15.303Z,38.53
2019-05-13T16:34:48.670Z,37.74
2019-05-13T16:37:22.138Z,38.17
2019-05-13T16:39:56.340Z,38.71
2019-05-13T16:42:31.690Z,38.62
2019-05-13T16:45:03.328Z,40.61
2019-05-13T16:47:36.120Z,39.74
2019-05-13T16:50:11.502Z,39.28
2019-05-13T16:52:44.277Z,38.51
2019-05-13T16:55:17.184Z,38.48
2019-05-13T16:57:51.360Z,39.26
2019-05-13T17:00:23.815Z,39.38
2019-05-13T17:02:55.685Z,38.05
2019-05-13T17:05:27.280Z,39.70
2019-05-13T17:07:58.961Z,38.96
2019-05-13T17:10:31.666Z,38.00
2019-05-13T17:13:03.539Z,38.94
2019-05-13T17:15:35.400Z,39.05
2019-05-13T17:18:11.963Z,39.25
2019-05-13T17:20:41.522Z,38.57
2019-05-13T17:23:13.581Z,38.77
2019-05-13T17:25:46.663Z,38.63
2019-05-13T17:28:21.859Z,39.20
2019-05-13T17:30:54.513Z,39.89
2019-05-13T17:33:28.201Z,40.57
2019-05-13T17:36:01.891Z,42.18
2019-05-13T17:38:34.438Z,40.57
2019-05-13T17:41:06.619Z,39.19
2019-05-13T17:43:41.262Z,38.79
2019-05-13T17:46:13.208Z,40.48
2019-05-13T17:48:45.076Z,40.74
2019-05-13T17:51:22.577Z,40.49
2019-05-13T17:53:54.499Z,39.51
2019-05-13T17:56:26.965Z,40.22
2019-05-13T17:59:01.799Z,39.54
2019-05-13T18:01:38.118Z,39.63
2019-05-13T18:04:11.938Z,40.31
2019-05-13T18:06:45.061Z,39.89
2019-05-13T18:09:17.668Z,40.22
2019-05-13T18:11:49.747Z,39.92
2019-05-13T18:14:23.312Z,40.17
2019-05-13T18:17:02.178Z,40.24
2019-05-13T18:19:34.910Z,40.98
2019-05-13T18:22:08.155Z,40.50
2019-05-13T18:24:41.328Z,40.52
2019-05-13T18:27:13.417Z,39.81
2019-05-13T18:29:45.168Z,39.20
2019-05-13T18:32:21.423Z,40.16
2019-05-13T18:34:53.273Z,40.51
2019-05-13T18:37:25.562Z,41.93
2019-05-13T18:39:58.101Z,44.37
2019-05-13T18:42:31.758Z,44.60
2019-05-13T18:45:05.699Z,42.71
2019-05-13T18:47:37.741Z,42.92
2019-05-13T18:50:11.638Z,44.00
2019-05-13T18:52:43.654Z,43.48
2019-05-13T18:55:15.374Z,45.80
2019-05-13T18:57:47.019Z,46.69
2019-05-13T19:00:21.637Z,47.65
2019-05-13T19:02:53.744Z,48.07
2019-05-13T19:05:26.776Z,49.24
2019-05-13T19:07:58.956Z,49.81
2019-05-13T19:10:31.240Z,51.57
2019-05-13T19:13:03.178Z,52.97
2019-05-13T19:15:35.013Z,53.10
2019-05-13T19:18:07.006Z,57.10
2019-05-13T19:20:41.891Z,55.95
2019-05-13T19:23:15.053Z,56.76
2019-05-13T19:25:48.257Z,57.66
2019-05-13T19:28:22.130Z,57.87
2019-05-13T19:30:56.803Z,57.97
2019-05-13T19:33:28.678Z,59.29
2019-05-13T19:36:01.601Z,59.50
2019-05-13T19:38:36.854Z,59.83
2019-05-13T19:41:11.661Z,61.25
2019-05-13T19:43:43.275Z,60.87
2019-05-13T19:46:15.454Z,61.25
2019-05-13T19:48:47.481Z,61.72
2019-05-13T19:51:21.623Z,66.63
2019-05-13T19:53:52.842Z,66.07
2019-05-13T19:56:26.678Z,66.75
2019-05-13T19:58:58.652Z,67.20
2019-05-13T20:01:32.170Z,68.19
2019-05-13T20:04:04.491Z,68.01
2019-05-13T20:06:36.255Z,68.93
2019-05-13T20:09:11.274Z,69.52
2019-05-13T20:11:43.201Z,70.28
2019-05-13T20:14:16.408Z,69.68
2019-05-13T20:16:48.912Z,69.32
2019-05-13T20:19:22.333Z,69.00
2019-05-13T20:21:54.771Z,65.88
2019-05-13T20:24:27.881Z,68.18
2019-05-13T20:27:01.566Z,70.23
2019-05-13T20:29:35.737Z,68.71
2019-05-13T20:32:11.640Z,68.71
2019-05-13T20:34:43.762Z,68.22
2019-05-13T20:37:15.602Z,69.37
2019-05-13T20:39:48.656Z,69.33
2019-05-13T20:42:20.650Z,69.43
2019-05-13T20:44:57.773Z,70.45
2019-05-13T20:47:34.558Z,70.69
2019-05-13T20:50:09.293Z,70.57
2019-05-13T20:52:42.101Z,70.14
2019-05-13T20:55:15.570Z,69.31
2019-05-13T20:57:47.322Z,71.41
2019-05-13T21:00:20.933Z,70.02
2019-05-13T21:02:53.099Z,70.62
2019-05-13T21:05:25.099Z,71.85
2019-05-13T21:07:56.817Z,69.72
2019-05-13T21:10:28.587Z,69.99
2019-05-13T21:13:01.740Z,68.23
2019-05-13T21:15:33.881Z,69.41
2019-05-13T21:18:05.619Z,70.19
2019-05-13T21:20:37.517Z,70.49
2019-05-13T21:23:11.159Z,71.05
2019-05-13T21:25:42.525Z,70.58
2019-05-13T21:28:15.509Z,70.85
2019-05-13T21:30:47.286Z,73.26
2019-05-13T21:33:19.012Z,71.48
2019-05-13T21:35:51.263Z,73.07
2019-05-13T21:38:23.092Z,74.51
2019-05-13T21:40:54.837Z,75.11
2019-05-13T21:43:26.564Z,75.02
2019-05-13T21:45:58.405Z,76.36
2019-05-13T21:48:32.316Z,76.32
2019-05-13T21:51:03.476Z,76.47
2019-05-13T21:53:36.832Z,76.07
2019-05-13T21:56:08.483Z,76.11
2019-05-13T21:58:41.597Z,77.48
2019-05-13T22:01:15.088Z,77.51
2019-05-13T22:03:47.603Z,77.50
2019-05-13T22:06:21.617Z,77.45
2019-05-13T22:08:52.760Z,77.66
2019-05-13T22:11:24.633Z,78.38
2019-05-13T22:13:56.352Z,78.18
2019-05-13T22:16:28.095Z,77.02
2019-05-13T22:19:01.528Z,78.50
2019-05-13T22:21:33.159Z,78.13
2019-05-13T22:24:04.962Z,77.59
2019-05-13T22:26:36.603Z,78.58
2019-05-13T22:29:08.428Z,77.05
2019-05-13T22:31:41.986Z,78.22
2019-05-13T22:34:13.789Z,79.04
2019-05-13T22:36:45.542Z,79.12
2019-05-13T22:39:17.281Z,80.87
2019-05-13T22:41:49.044Z,79.31
2019-05-13T22:44:21.759Z,79.84
2019-05-13T22:46:53.522Z,78.83
2019-05-13T22:49:25.263Z,78.29
2019-05-13T22:51:57.034Z,76.42
2019-05-13T22:54:31.878Z,77.39
2019-05-13T22:57:03.952Z,77.66
2019-05-13T22:59:35.663Z,78.96
2019-05-13T23:02:07.404Z,79.45
2019-05-13T23:04:39.199Z,79.70
2019-05-13T23:07:11.775Z,80.11
2019-05-13T23:09:43.956Z,80.69
2019-05-13T23:12:15.706Z,81.16
2019-05-13T23:14:47.434Z,79.86
2019-05-13T23:17:21.411Z,80.88
2019-05-13T23:19:52.803Z,79.89
2019-05-13T23:22:24.558Z,77.70
2019-05-13T23:24:56.645Z,79.53
2019-05-13T23:27:28.388Z,78.90
2019-05-13T23:30:01.130Z,77.08
2019-05-13T23:32:34.941Z,76.03
2019-05-13T23:35:11.004Z,78.46
2019-05-13T23:37:42.510Z,78.55
2019-05-13T23:40:16.842Z,78.55
2019-05-13T23:42:51.815Z,78.50
2019-05-13T23:45:23.843Z,78.31
2019-05-13T23:47:55.675Z,77.67
2019-05-13T23:50:29.237Z,77.54
2019-05-13T23:53:00.978Z,78.10
2019-05-13T23:55:33.282Z,76.56
2019-05-13T23:58:05.893Z,73.94
